createdAt,value
2023-05-19T00:01:02.100Z,60657.13
2023-05-19T00:03:31.813Z,60653.31
2023-05-19T00:06:03.637Z,60644.91
2023-05-19T00:08:34.905Z,60645.69
2023-05-19T00:11:03.798Z,60635.13
2023-05-19T00:13:32.855Z,60637.00
2023-05-19T00:16:01.802Z,60633.34
2023-05-19T00:18:30.851Z,60627.50
2023-05-19T00:20:59.310Z,60630.50
2023-05-19T00:23:27.744Z,60630.50
2023-05-19T00:25:57.616Z,60624.66
2023-05-19T00:28:26.063Z,60622.06
2023-05-19T00:30:54.622Z,60619.91
2023-05-19T00:33:23.072Z,60626.66
2023-05-19T00:35:51.718Z,60623.56
2023-05-19T00:38:20.252Z,60617.72
2023-05-19T00:40:48.804Z,60606.84
2023-05-19T00:43:18.719Z,60597.47
2023-05-19T00:45:47.179Z,60578.34
2023-05-19T00:48:15.618Z,60579.56
2023-05-19T00:50:44.806Z,60569.91
2023-05-19T00:53:14.828Z,60582.28
2023-05-19T00:55:43.787Z,60589.47
2023-05-19T00:58:13.856Z,60590.28
2023-05-19T01:00:44.333Z,60580.09
2023-05-19T01:03:13.544Z,60569.13
2023-05-19T01:05:44.738Z,60570.72
2023-05-19T01:08:13.404Z,60565.56
2023-05-19T01:10:42.144Z,60564.97
2023-05-19T01:13:10.713Z,60547.09
2023-05-19T01:15:53.363Z,60554.66
2023-05-19T01:18:30.976Z,60539.88
2023-05-19T01:21:10.760Z,60548.97
2023-05-19T01:23:54.483Z,60556.19
2023-05-19T01:26:43.786Z,60554.41
2023-05-19T01:29:38.013Z,60544.53
2023-05-19T01:32:10.400Z,60548.97
2023-05-19T01:34:44.206Z,60552.53
2023-05-19T01:38:18.354Z,60558.22
2023-05-19T01:40:49.234Z,60555.25
2023-05-19T01:43:20.311Z,60552.91
2023-05-19T01:45:50.014Z,60559.44
2023-05-19T01:48:19.927Z,60560.91
2023-05-19T01:50:48.648Z,60548.72
2023-05-19T01:53:17.346Z,60551.69
2023-05-19T01:55:50.576Z,60548.59
2023-05-19T01:58:23.832Z,60554.41
2023-05-19T02:00:55.167Z,60547.50
2023-05-19T02:03:39.713Z,60551.16
2023-05-19T02:06:24.496Z,60550.59
2023-05-19T02:08:57.398Z,60549.53
2023-05-19T02:11:31.472Z,60546.41
2023-05-19T02:14:03.914Z,60543.84
2023-05-19T02:16:33.551Z,60550.34
2023-05-19T02:19:03.456Z,60549.66
2023-05-19T02:21:31.946Z,60547.09
2023-05-19T02:24:00.400Z,60540.97
2023-05-19T02:26:28.888Z,60536.66
2023-05-19T02:28:57.401Z,60539.75
2023-05-19T02:31:26.184Z,60535.16
2023-05-19T02:33:54.643Z,60529.31
2023-05-19T02:36:26.579Z,60538.09
2023-05-19T02:38:55.217Z,60537.19
2023-05-19T02:41:23.671Z,60539.34
2023-05-19T02:43:52.108Z,60535.31
2023-05-19T02:46:20.643Z,60536.66
2023-05-19T02:48:49.270Z,60538.09
2023-05-19T02:51:17.708Z,60545.03
2023-05-19T02:53:47.546Z,60540.59
2023-05-19T02:56:15.960Z,60541.66
2023-05-19T02:58:44.647Z,60538.41
2023-05-19T03:01:13.241Z,60535.16
2023-05-19T03:03:42.276Z,60542.06
2023-05-19T03:06:10.868Z,60537.31
2023-05-19T03:08:41.634Z,60537.31
2023-05-19T03:11:12.343Z,60540.44
2023-05-19T03:13:40.780Z,60544.66
2023-05-19T03:16:09.399Z,60538.41
2023-05-19T03:18:37.955Z,60546.81
2023-05-19T03:21:06.765Z,60544.66
2023-05-19T03:23:35.343Z,60543.84
2023-05-19T03:26:04.251Z,60551.16
2023-05-19T03:31:16.428Z,60547.34
2023-05-19T03:33:44.921Z,60548.72
2023-05-19T03:36:13.643Z,60551.16
2023-05-19T03:38:42.125Z,60547.09
2023-05-19T03:41:10.554Z,60546.03
2023-05-19T03:43:40.361Z,60550.19
2023-05-19T03:46:08.861Z,60548.44
2023-05-19T03:48:37.348Z,60544.38
2023-05-19T03:51:05.945Z,60550.06
2023-05-19T03:53:34.432Z,60554.41
2023-05-19T03:56:02.923Z,60555.50
2023-05-19T03:58:31.396Z,60552.91
2023-05-19T04:01:01.239Z,60559.44
2023-05-19T04:03:30.138Z,60557.97
2023-05-19T04:05:58.595Z,60562.84
2023-05-19T04:08:27.138Z,60568.53
2023-05-19T04:10:55.624Z,60567.75
2023-05-19T04:13:24.110Z,60574.25
2023-05-19T04:15:52.797Z,60579.00
2023-05-19T04:18:22.631Z,60577.50
2023-05-19T04:20:51.182Z,60581.88
2023-05-19T04:23:19.654Z,60591.66
2023-05-19T04:25:48.801Z,60597.09
2023-05-19T04:28:17.978Z,60602.53
2023-05-19T04:30:47.232Z,60615.25
2023-05-19T04:33:15.956Z,60611.19
2023-05-19T04:35:45.898Z,60619.63
2023-05-19T04:38:18.530Z,60625.06
2023-05-19T04:40:50.214Z,60630.50
2023-05-19T04:43:19.341Z,60633.34
2023-05-19T04:45:50.233Z,60634.81
2023-05-19T04:48:19.151Z,60633.88
2023-05-19T04:50:49.558Z,60635.13
2023-05-19T04:53:18.037Z,60642.97
2023-05-19T04:55:46.648Z,60639.47
2023-05-19T04:58:15.101Z,60643.28
2023-05-19T05:00:43.579Z,60652.78
2023-05-19T05:03:14.627Z,60645.47
2023-05-19T05:05:43.200Z,60642.75
2023-05-19T05:08:15.365Z,60640.56
2023-05-19T05:10:43.820Z,60648.97
2023-05-19T05:13:12.860Z,60654.41
2023-05-19T05:15:41.872Z,60654.00
2023-05-19T05:18:11.008Z,60661.06
2023-05-19T05:20:40.954Z,60669.63
2023-05-19T05:23:10.658Z,60675.06
2023-05-19T05:25:41.309Z,60672.09
2023-05-19T05:28:09.844Z,60675.75
2023-05-19T05:30:38.329Z,60671.00
2023-05-19T05:33:07.396Z,60663.97
2023-05-19T05:35:36.116Z,60682.69
2023-05-19T05:38:04.725Z,60680.78
2023-05-19T05:40:33.299Z,60682.56
2023-05-19T05:43:03.126Z,60686.91
2023-05-19T05:45:31.909Z,60689.22
2023-05-19T05:48:01.012Z,60696.97
2023-05-19T05:50:30.120Z,60694.22
2023-05-19T05:53:00.319Z,60694.78
2023-05-19T05:55:29.600Z,60696.44
2023-05-19T05:57:58.790Z,60700.41
2023-05-19T06:00:28.705Z,60712.06
2023-05-19T06:02:59.219Z,60716.56
2023-05-19T06:05:27.970Z,60715.91
2023-05-19T06:07:56.595Z,60725.41
2023-05-19T06:10:25.098Z,60734.50
2023-05-19T06:12:53.544Z,60746.34
2023-05-19T06:15:22.621Z,60749.34
2023-05-19T06:17:52.508Z,60760.63
2023-05-19T06:20:21.088Z,60765.13
2023-05-19T06:22:49.631Z,60771.13
2023-05-19T06:25:18.142Z,60782.41
2023-05-19T06:27:46.638Z,60784.72
2023-05-19T06:30:15.540Z,60791.81
2023-05-19T06:32:44.103Z,60796.31
2023-05-19T06:35:13.996Z,60803.38
2023-05-19T06:37:42.420Z,60814.38
2023-05-19T06:40:11.918Z,60816.16
2023-05-19T06:42:40.448Z,60815.38
2023-05-19T06:45:09.994Z,60824.47
2023-05-19T06:47:38.497Z,60832.66
2023-05-19T06:50:07.564Z,60838.63
2023-05-19T06:52:37.408Z,60850.88
2023-05-19T06:55:06.934Z,60855.38
2023-05-19T06:57:36.200Z,60859.47
2023-05-19T07:00:06.653Z,60868.06
2023-05-19T07:02:35.486Z,60875.13
2023-05-19T07:05:04.035Z,60880.59
2023-05-19T07:07:32.734Z,60883.59
2023-05-19T07:10:02.644Z,60895.84
2023-05-19T07:12:31.271Z,60904.56
2023-05-19T07:15:02.598Z,60919.00
2023-05-19T07:17:31.050Z,60916.81
2023-05-19T07:19:59.590Z,60929.63
2023-05-19T07:22:28.080Z,60938.91
2023-05-19T07:24:57.122Z,60954.97
2023-05-19T07:27:26.983Z,60965.63
2023-05-19T07:29:55.453Z,60977.59
2023-05-19T07:32:24.162Z,60985.38
2023-05-19T07:34:53.450Z,60992.59
2023-05-19T07:37:21.964Z,61003.66
2023-05-19T07:39:50.506Z,61027.66
2023-05-19T07:42:18.980Z,61041.44
2023-05-19T07:44:48.917Z,61054.69
2023-05-19T07:47:17.372Z,61072.69
2023-05-19T07:49:46.070Z,61075.00
2023-05-19T07:52:14.567Z,61086.59
2023-05-19T07:54:43.031Z,61091.09
2023-05-19T07:57:11.498Z,61099.28
2023-05-19T07:59:40.334Z,61106.53
2023-05-19T08:02:10.176Z,61120.03
2023-05-19T08:04:38.812Z,61127.69
2023-05-19T08:07:07.405Z,61139.00
2023-05-19T08:09:35.951Z,61140.38
2023-05-19T08:12:05.268Z,61153.22
2023-05-19T08:14:34.900Z,61155.69
2023-05-19T08:17:03.728Z,61162.22
2023-05-19T08:19:33.593Z,61165.94
2023-05-19T08:22:02.220Z,61167.28
2023-05-19T08:24:32.822Z,61180.13
2023-05-19T08:27:01.559Z,61191.06
2023-05-19T08:29:30.061Z,61203.50
2023-05-19T08:31:59.464Z,61205.66
2023-05-19T08:34:28.146Z,61217.41
2023-05-19T08:36:57.986Z,61220.28
2023-05-19T08:39:27.318Z,61223.44
2023-05-19T08:41:55.880Z,61239.97
2023-05-19T08:44:24.376Z,61248.97
2023-05-19T08:46:56.537Z,61266.19
2023-05-19T08:49:28.808Z,61264.97
2023-05-19T08:52:03.655Z,61267.81
2023-05-19T08:54:44.884Z,61280.72
2023-05-19T08:57:14.194Z,61285.06
2023-05-19T08:59:44.255Z,61285.22
2023-05-19T09:02:15.094Z,61292.19
2023-05-19T09:04:46.033Z,61294.91
2023-05-19T09:07:16.386Z,61298.88
2023-05-19T09:09:44.980Z,61317.34
2023-05-19T09:12:15.032Z,61324.19
2023-05-19T09:14:43.718Z,61334.00
2023-05-19T09:17:12.269Z,61346.34
2023-05-19T09:19:45.091Z,61337.84
2023-05-19T09:22:19.109Z,61353.59
2023-05-19T09:24:48.583Z,61368.22
2023-05-19T09:27:23.172Z,61376.00
2023-05-19T09:29:52.353Z,61389.03
2023-05-19T09:32:27.576Z,61400.25
2023-05-19T09:35:01.069Z,61406.81
2023-05-19T09:37:32.182Z,61417.78
2023-05-19T09:40:01.075Z,61412.56
2023-05-19T09:42:30.181Z,61402.84
2023-05-19T09:45:02.664Z,61412.03
2023-05-19T09:47:35.476Z,61412.03
2023-05-19T09:50:05.413Z,61416.69
2023-05-19T09:52:38.778Z,61404.34
2023-05-19T09:55:11.022Z,61381.63
2023-05-19T09:57:40.789Z,61389.72
2023-05-19T10:00:14.861Z,61404.47
2023-05-19T10:02:44.991Z,61426.81
2023-05-19T10:05:17.354Z,61449.94
2023-05-19T10:07:48.729Z,61471.53
2023-05-19T10:10:17.290Z,61496.91
2023-05-19T10:12:46.290Z,61503.22
2023-05-19T10:15:16.257Z,61492.09
2023-05-19T10:17:46.187Z,61488.81
2023-05-19T10:20:16.258Z,61512.25
2023-05-19T10:22:45.953Z,61524.44
2023-05-19T10:25:18.720Z,61548.69
2023-05-19T10:27:54.293Z,61568.41
2023-05-19T10:30:28.365Z,61575.00
2023-05-19T10:32:58.093Z,61540.47
2023-05-19T10:36:08.477Z,61540.88
2023-05-19T10:38:44.150Z,61535.41
2023-05-19T10:41:24.687Z,61552.50
2023-05-19T10:44:09.970Z,61556.47
2023-05-19T10:46:40.899Z,61547.84
2023-05-19T10:49:09.977Z,61551.41
2023-05-19T10:51:38.584Z,61573.34
2023-05-19T10:54:11.526Z,61574.88
2023-05-19T10:56:47.282Z,61568.97
2023-05-19T10:59:33.270Z,61586.38
2023-05-19T11:02:05.211Z,61605.69
2023-05-19T11:04:52.675Z,61608.75
2023-05-19T11:07:24.681Z,61608.75
2023-05-19T11:09:53.492Z,61599.38
2023-05-19T11:12:25.120Z,61559.63
2023-05-19T11:14:54.089Z,61553.47
2023-05-19T11:17:27.525Z,61574.44
2023-05-19T11:19:57.614Z,61616.53
2023-05-19T11:22:27.666Z,61650.13
2023-05-19T11:24:57.776Z,61686.06
2023-05-19T11:27:28.886Z,61708.41
2023-05-19T11:29:59.305Z,61737.00
2023-05-19T11:32:31.543Z,61744.38
2023-05-19T11:35:00.816Z,61746.72
2023-05-19T11:37:32.768Z,61704.75
2023-05-19T11:40:02.787Z,61703.22
2023-05-19T11:42:32.817Z,61724.75
2023-05-19T11:45:01.660Z,61682.47
2023-05-19T11:47:41.980Z,61653.41
2023-05-19T11:50:16.067Z,61608.97
2023-05-19T11:52:47.736Z,61629.81
2023-05-19T11:55:17.625Z,61642.84
2023-05-19T11:58:04.656Z,61682.34
2023-05-19T12:00:39.193Z,61698.97
2023-05-19T12:03:09.570Z,61739.88
2023-05-19T12:05:43.176Z,61713.50
2023-05-19T12:08:12.704Z,61687.97
2023-05-19T12:10:41.858Z,61694.00
2023-05-19T12:13:12.002Z,61676.31
2023-05-19T12:15:40.636Z,61713.94
2023-05-19T12:18:09.806Z,61775.56
2023-05-19T12:20:39.393Z,61808.75
2023-05-19T12:23:10.566Z,61867.53
2023-05-19T12:25:39.375Z,61877.44
2023-05-19T12:28:08.280Z,61913.72
2023-05-19T12:30:38.956Z,61920.44
2023-05-19T12:33:07.787Z,61906.03
2023-05-19T12:35:39.014Z,61887.78
2023-05-19T12:38:08.218Z,61839.22
2023-05-19T12:40:42.225Z,61832.69
2023-05-19T12:43:21.043Z,61836.78
2023-05-19T12:45:51.056Z,61828.00
2023-05-19T12:48:22.710Z,61811.25
2023-05-19T12:50:53.827Z,61784.03
2023-05-19T12:53:22.538Z,61781.84
2023-05-19T12:55:54.011Z,61799.03
2023-05-19T12:58:23.390Z,61856.31
2023-05-19T13:00:59.795Z,61867.72
2023-05-19T13:03:29.117Z,61921.41
2023-05-19T13:05:59.638Z,61949.47
2023-05-19T13:08:28.464Z,61934.91
2023-05-19T13:10:57.257Z,61935.16
2023-05-19T13:13:26.015Z,62008.34
2023-05-19T13:15:56.585Z,62015.59
2023-05-19T13:18:27.569Z,61955.50
2023-05-19T13:20:56.324Z,61958.81
2023-05-19T13:23:25.783Z,62038.03
2023-05-19T13:25:54.366Z,62056.75
2023-05-19T13:28:23.455Z,62029.47
2023-05-19T13:30:52.235Z,62019.31
2023-05-19T13:33:22.269Z,62015.91
2023-05-19T13:35:50.869Z,61965.00
2023-05-19T13:38:19.369Z,61952.88
2023-05-19T13:40:47.911Z,61915.50
2023-05-19T13:43:16.473Z,61941.09
2023-05-19T13:45:45.249Z,61855.22
2023-05-19T13:48:13.943Z,61781.00
2023-05-19T13:50:44.122Z,61779.09
2023-05-19T13:53:12.926Z,61753.28
2023-05-19T13:55:41.503Z,61701.03
2023-05-19T13:58:11.162Z,61680.16
2023-05-19T14:00:39.905Z,61685.09
2023-05-19T14:03:08.949Z,61667.00
2023-05-19T14:05:38.028Z,61661.38
2023-05-19T14:08:08.124Z,61661.66
2023-05-19T14:10:36.680Z,61648.75
2023-05-19T14:13:29.849Z,61651.91
2023-05-19T14:15:54.131Z,61650.81
2023-05-19T14:18:22.700Z,61649.03
2023-05-19T14:20:51.259Z,61676.44
2023-05-19T14:23:21.647Z,61691.81
2023-05-19T14:25:50.305Z,61683.28
2023-05-19T14:28:18.974Z,61717.91
2023-05-19T14:30:48.119Z,61739.88
2023-05-19T14:33:16.857Z,61698.41
2023-05-19T14:35:45.515Z,61688.94
2023-05-19T14:38:14.185Z,61669.19
2023-05-19T14:40:44.144Z,61673.16
2023-05-19T14:43:12.923Z,61666.44
2023-05-19T14:45:41.994Z,61661.09
2023-05-19T14:48:12.030Z,61647.94
2023-05-19T14:50:40.763Z,61643.97
2023-05-19T14:53:09.682Z,61624.34
2023-05-19T14:55:39.031Z,61649.03
2023-05-19T14:58:23.617Z,61697.31
2023-05-19T15:00:55.949Z,61688.94
2023-05-19T15:03:25.070Z,61683.88
2023-05-19T15:05:53.934Z,61670.72
2023-05-19T15:08:22.482Z,61657.97
2023-05-19T15:10:51.424Z,61632.56
2023-05-19T15:13:21.633Z,61582.97
2023-05-19T15:15:50.279Z,61549.22
2023-05-19T15:18:18.908Z,61556.63
2023-05-19T15:20:47.589Z,61530.06
2023-05-19T15:23:16.155Z,61532.25
2023-05-19T15:25:45.580Z,61540.88
2023-05-19T15:28:14.476Z,61540.88
2023-05-19T15:30:45.267Z,61557.19
2023-05-19T15:33:14.040Z,61574.44
2023-05-19T15:35:42.697Z,61629.28
2023-05-19T15:38:11.185Z,61671.38
2023-05-19T15:40:43.053Z,61658.78
2023-05-19T15:43:11.589Z,61636.84
2023-05-19T15:45:40.194Z,61637.38
2023-05-19T15:48:10.488Z,61639.97
2023-05-19T15:50:39.324Z,61615.03
2023-05-19T15:53:09.019Z,61576.22
2023-05-19T15:55:37.734Z,61571.56
2023-05-19T15:58:06.455Z,61551.84
2023-05-19T16:00:35.488Z,61549.38
2023-05-19T16:03:04.348Z,61543.19
2023-05-19T16:05:34.480Z,61540.47
2023-05-19T16:08:03.206Z,61531.44
2023-05-19T16:10:31.818Z,61531.00
2023-05-19T16:13:00.541Z,61529.22
2023-05-19T16:15:29.052Z,61513.47
2023-05-19T16:17:57.654Z,61508.13
2023-05-19T16:20:28.283Z,61512.38
2023-05-19T16:22:58.457Z,61511.69
2023-05-19T16:25:26.967Z,61504.31
2023-05-19T16:27:55.602Z,61509.09
2023-05-19T16:30:26.310Z,61506.50
2023-05-19T16:32:55.369Z,61503.22
2023-05-19T16:35:24.045Z,61507.44
2023-05-19T16:37:52.599Z,61501.97
2023-05-19T16:40:22.473Z,61502.09
2023-05-19T16:42:51.046Z,61493.88
2023-05-19T16:45:19.665Z,61493.06
2023-05-19T16:47:48.287Z,61494.16
2023-05-19T16:50:17.052Z,61494.84
2023-05-19T16:52:45.911Z,61498.53
2023-05-19T16:55:19.478Z,61487.84
2023-05-19T16:57:49.841Z,61473.59
2023-05-19T17:00:18.603Z,61467.03
2023-05-19T17:02:47.368Z,61464.59
2023-05-19T17:05:16.276Z,61451.03
2023-05-19T17:07:44.768Z,61436.13
2023-05-19T17:10:13.908Z,61434.47
2023-05-19T17:12:42.433Z,61427.34
2023-05-19T17:15:12.891Z,61421.88
2023-05-19T17:17:41.442Z,61413.13
2023-05-19T17:20:11.102Z,61413.13
2023-05-19T17:22:39.666Z,61410.50
2023-05-19T17:25:09.108Z,61414.22
2023-05-19T17:27:37.703Z,61415.31
2023-05-19T17:30:07.791Z,61410.66
2023-05-19T17:32:39.464Z,61407.34
2023-05-19T17:35:09.651Z,61410.38
2023-05-19T17:37:38.257Z,61392.84
2023-05-19T17:40:08.112Z,61397.53
2023-05-19T17:42:36.606Z,61405.47
2023-05-19T17:45:07.538Z,61406.56
2023-05-19T17:47:37.493Z,61396.53
2023-05-19T17:50:06.910Z,61386.72
2023-05-19T17:52:36.200Z,61380.53
2023-05-19T17:55:06.046Z,61386.94
2023-05-19T17:57:36.354Z,61386.81
2023-05-19T18:00:06.107Z,61388.34
2023-05-19T18:02:35.225Z,61372.31
2023-05-19T18:05:06.088Z,61370.00
2023-05-19T18:07:39.192Z,61371.91
2023-05-19T18:10:09.327Z,61365.63
2023-05-19T18:12:37.867Z,61357.69
2023-05-19T18:15:07.368Z,61355.38
2023-05-19T18:17:35.966Z,61350.44
2023-05-19T18:20:06.765Z,61348.13
2023-05-19T18:22:35.253Z,61351.81
2023-05-19T18:25:03.768Z,61335.13
2023-05-19T18:27:33.497Z,61340.47
2023-05-19T18:30:01.990Z,61325.28
2023-05-19T18:32:30.549Z,61323.34
2023-05-19T18:34:59.042Z,61317.63
2023-05-19T18:37:29.400Z,61315.72
2023-05-19T18:39:57.945Z,61306.56
2023-05-19T18:42:26.457Z,61300.38
2023-05-19T18:44:54.951Z,61289.72
2023-05-19T18:47:23.793Z,61294.91
2023-05-19T18:49:52.360Z,61298.22
2023-05-19T18:52:21.758Z,61292.19
2023-05-19T18:54:51.771Z,61279.06
2023-05-19T18:57:20.543Z,61268.94
2023-05-19T18:59:49.098Z,61264.28
2023-05-19T19:02:17.632Z,61267.56
2023-05-19T19:04:46.386Z,61261.56
2023-05-19T19:07:15.121Z,61259.91
2023-05-19T19:09:43.989Z,61250.91
2023-05-19T19:12:13.846Z,61240.50
2023-05-19T19:14:42.345Z,61245.03
2023-05-19T19:17:11.109Z,61236.00
2023-05-19T19:19:39.785Z,61227.38
2023-05-19T19:22:08.317Z,61225.34
2023-05-19T19:24:36.804Z,61221.25
2023-05-19T19:27:05.926Z,61219.59
2023-05-19T19:29:35.886Z,61220.03
2023-05-19T19:32:04.777Z,61216.31
2023-05-19T19:34:33.379Z,61217.28
2023-05-19T19:37:01.975Z,61208.81
2023-05-19T19:39:30.572Z,61209.22
2023-05-19T19:41:59.055Z,61201.16
2023-05-19T19:44:27.478Z,61201.03
2023-05-19T19:46:57.437Z,61197.59
2023-05-19T19:49:26.117Z,61195.97
2023-05-19T19:51:54.709Z,61189.16
2023-05-19T19:54:23.346Z,61191.59
2023-05-19T19:56:52.537Z,61187.78
2023-05-19T19:59:21.226Z,61187.78
2023-05-19T20:01:49.949Z,61188.75
2023-05-19T20:04:20.151Z,61185.31
2023-05-19T20:06:49.670Z,61181.22
2023-05-19T20:09:18.497Z,61175.22
2023-05-19T20:11:47.051Z,61170.97
2023-05-19T20:14:15.723Z,61166.59
2023-05-19T20:16:44.451Z,61164.44
2023-05-19T20:19:13.310Z,61164.28
2023-05-19T20:21:43.326Z,61161.56
2023-05-19T20:24:12.013Z,61153.63
2023-05-19T20:26:40.613Z,61158.69
2023-05-19T20:29:09.152Z,61150.34
2023-05-19T20:31:37.966Z,61148.44
2023-05-19T20:34:06.641Z,61147.34
2023-05-19T20:36:35.123Z,61146.25
2023-05-19T20:39:07.040Z,61146.66
2023-05-19T20:41:35.560Z,61140.25
2023-05-19T20:44:04.269Z,61135.31
2023-05-19T20:46:32.869Z,61132.59
2023-05-19T20:49:01.483Z,61126.88
2023-05-19T20:51:30.130Z,61135.72
2023-05-19T20:53:59.984Z,61127.41
2023-05-19T20:56:29.923Z,61130.81
2023-05-19T20:58:58.383Z,61123.88
2023-05-19T21:01:27.214Z,61119.06
2023-05-19T21:03:56.209Z,61111.03
2023-05-19T21:06:24.833Z,61116.75
2023-05-19T21:08:53.338Z,61106.13
2023-05-19T21:11:22.435Z,61102.28
2023-05-19T21:13:52.759Z,61108.00
2023-05-19T21:16:21.470Z,61101.59
2023-05-19T21:18:51.478Z,61098.59
2023-05-19T21:21:20.515Z,61079.91
2023-05-19T21:23:49.004Z,61081.81
2023-05-19T21:26:17.690Z,61079.09
2023-05-19T21:28:46.360Z,61064.09
2023-05-19T21:31:16.626Z,61051.25
2023-05-19T21:33:45.541Z,61044.84
2023-05-19T21:36:14.032Z,61045.41
2023-05-19T21:38:42.719Z,61053.84
2023-05-19T21:41:11.311Z,61060.28
2023-05-19T21:43:41.215Z,61051.53
2023-05-19T21:46:10.102Z,61055.75
2023-05-19T21:48:40.583Z,61058.34
2023-05-19T21:51:09.843Z,61048.00
2023-05-19T21:53:38.452Z,61031.22
2023-05-19T21:56:07.016Z,61026.97
2023-05-19T21:58:36.134Z,61023.31
2023-05-19T22:01:05.564Z,61021.41
2023-05-19T22:03:34.347Z,61033.38
2023-05-19T22:06:06.539Z,61030.25
2023-05-19T22:08:35.189Z,61022.91
2023-05-19T22:11:03.798Z,61026.59
2023-05-19T22:13:32.333Z,61022.34
2023-05-19T22:16:01.291Z,61014.69
2023-05-19T22:18:29.831Z,61014.41
2023-05-19T22:20:58.294Z,61000.50
2023-05-19T22:23:28.233Z,60993.69
2023-05-19T22:25:56.811Z,60985.09
2023-05-19T22:28:25.324Z,60978.56
2023-05-19T22:30:53.990Z,60969.97
2023-05-19T22:33:22.789Z,60965.75
2023-05-19T22:35:51.414Z,60972.72
2023-05-19T22:38:20.016Z,60973.25
2023-05-19T22:40:50.054Z,60964.66
2023-05-19T22:43:18.550Z,60963.97
2023-05-19T22:45:47.379Z,60963.44
2023-05-19T22:48:16.490Z,60966.31
2023-05-19T22:50:45.123Z,60956.63
2023-05-19T22:53:13.618Z,60966.16
2023-05-19T22:55:42.161Z,60969.69
2023-05-19T22:58:12.090Z,60955.25
2023-05-19T23:00:40.614Z,60955.25
2023-05-19T23:03:09.216Z,60957.44
2023-05-19T23:05:37.888Z,60948.31
2023-05-19T23:08:07.043Z,60946.53
2023-05-19T23:10:35.584Z,60945.03
2023-05-19T23:13:04.131Z,60949.81
2023-05-19T23:15:34.261Z,60951.44
2023-05-19T23:18:07.224Z,60955.66
2023-05-19T23:20:36.443Z,60952.13
2023-05-19T23:23:04.978Z,60952.69
2023-05-19T23:25:33.672Z,60953.06
2023-05-19T23:28:02.294Z,60954.97
2023-05-19T23:30:31.921Z,60948.72
2023-05-19T23:33:01.794Z,60944.75
2023-05-19T23:35:30.581Z,60934.53
2023-05-19T23:37:59.094Z,60929.78
2023-05-19T23:40:27.653Z,60933.84
2023-05-19T23:42:56.629Z,60932.09
2023-05-19T23:45:25.172Z,60923.63
2023-05-19T23:47:53.851Z,60920.38
2023-05-19T23:50:24.023Z,60908.38
2023-05-19T23:52:52.636Z,60896.38
2023-05-19T23:55:21.252Z,60889.31
2023-05-19T23:57:49.870Z,60884.94
